createdAt,value
2017-10-21T00:00:03.052Z,991.29
2017-10-21T00:01:03.016Z,991.29
2017-10-21T00:02:02.996Z,991.32
2017-10-21T00:03:02.967Z,991.30
2017-10-21T00:04:02.962Z,991.32
2017-10-21T00:05:02.939Z,991.33
2017-10-21T00:06:02.911Z,991.37
2017-10-21T00:07:02.887Z,991.40
2017-10-21T00:08:02.869Z,991.37
2017-10-21T00:09:02.841Z,991.37
2017-10-21T00:10:02.815Z,991.33
2017-10-21T00:11:02.797Z,991.34
2017-10-21T00:12:02.797Z,991.33
2017-10-21T00:13:02.755Z,991.36
2017-10-21T00:14:02.774Z,991.35
2017-10-21T00:15:02.735Z,991.30
2017-10-21T00:16:02.706Z,991.32
2017-10-21T00:17:02.679Z,991.26
2017-10-21T00:18:02.663Z,991.27
2017-10-21T00:19:02.626Z,991.30
2017-10-21T00:20:02.618Z,991.28
2017-10-21T00:21:02.578Z,991.27
2017-10-21T00:22:02.581Z,991.28
2017-10-21T00:23:02.539Z,991.27
2017-10-21T00:24:02.535Z,991.25
2017-10-21T00:25:02.504Z,991.29
2017-10-21T00:26:02.465Z,991.30
2017-10-21T00:27:03.127Z,991.28
2017-10-21T00:28:02.425Z,991.31
2017-10-21T00:29:02.429Z,991.34
2017-10-21T00:30:02.390Z,991.32
2017-10-21T00:31:02.369Z,991.38
2017-10-21T00:32:02.341Z,991.38
2017-10-21T00:33:03.147Z,991.36
2017-10-21T00:34:02.296Z,991.34
2017-10-21T00:35:02.286Z,991.38
2017-10-21T00:36:02.261Z,991.35
2017-10-21T00:37:02.239Z,991.38
2017-10-21T00:38:02.210Z,991.40
2017-10-21T00:39:02.188Z,991.38
2017-10-21T00:40:02.171Z,991.41
2017-10-21T00:41:02.144Z,991.37
2017-10-21T00:42:02.131Z,991.40
2017-10-21T00:43:02.109Z,991.39
2017-10-21T00:44:02.086Z,991.35
2017-10-21T00:45:02.066Z,991.33
2017-10-21T00:46:02.042Z,991.30
2017-10-21T00:47:02.024Z,991.27
2017-10-21T00:48:01.991Z,991.31
2017-10-21T00:49:02.007Z,991.33
2017-10-21T00:50:01.961Z,991.29
2017-10-21T00:51:01.925Z,991.31
2017-10-21T00:52:01.915Z,991.31
2017-10-21T00:53:01.896Z,991.27
2017-10-21T00:54:01.883Z,991.24
2017-10-21T00:55:01.836Z,991.27
2017-10-21T00:56:01.818Z,991.24
2017-10-21T00:57:01.807Z,991.29
2017-10-21T00:58:01.774Z,991.27
2017-10-21T00:59:01.755Z,991.23
2017-10-21T01:00:01.735Z,991.21
2017-10-21T01:01:01.713Z,991.19
2017-10-21T01:02:01.684Z,991.22
2017-10-21T01:03:01.672Z,991.21
2017-10-21T01:04:01.906Z,991.21
2017-10-21T01:05:01.651Z,991.18
2017-10-21T01:06:01.617Z,991.22
2017-10-21T01:07:01.584Z,991.17
2017-10-21T01:08:01.565Z,991.13
2017-10-21T01:09:01.538Z,991.12
2017-10-21T01:10:01.519Z,991.12
2017-10-21T01:11:01.488Z,991.09
2017-10-21T01:12:01.478Z,991.09
2017-10-21T01:13:01.468Z,991.08
2017-10-21T01:14:01.434Z,991.05
2017-10-21T01:15:01.404Z,991.09
2017-10-21T01:16:01.381Z,991.12
2017-10-21T01:17:01.372Z,991.11
2017-10-21T01:18:01.343Z,991.06
2017-10-21T01:19:01.337Z,991.13
2017-10-21T01:20:01.296Z,991.14
2017-10-21T01:21:01.279Z,991.13
2017-10-21T01:22:01.264Z,991.19
2017-10-21T01:23:01.235Z,991.19
2017-10-21T01:24:01.210Z,991.20
2017-10-21T01:25:01.204Z,991.22
2017-10-21T01:26:01.189Z,991.21
2017-10-21T01:27:01.158Z,991.23
2017-10-21T01:28:01.124Z,991.24
2017-10-21T01:29:01.095Z,991.25
2017-10-21T01:30:01.095Z,991.24
2017-10-21T01:31:01.060Z,991.27
2017-10-21T01:32:01.050Z,991.23
2017-10-21T01:33:01.009Z,991.23
2017-10-21T01:34:00.997Z,991.21
2017-10-21T01:35:00.980Z,991.19
2017-10-21T01:36:00.969Z,991.20
2017-10-21T01:37:00.937Z,991.20
2017-10-21T01:38:00.910Z,991.18
2017-10-21T01:39:00.905Z,991.16
2017-10-21T01:40:00.875Z,991.14
2017-10-21T01:41:00.848Z,991.10
2017-10-21T01:42:00.848Z,991.17
2017-10-21T01:43:00.812Z,991.16
2017-10-21T01:44:00.777Z,991.18
2017-10-21T01:45:00.759Z,991.14
2017-10-21T01:46:00.751Z,991.18
2017-10-21T01:47:00.709Z,991.16
2017-10-21T01:48:00.699Z,991.15
2017-10-21T01:49:00.670Z,991.16
2017-10-21T01:50:00.664Z,991.16
2017-10-21T01:51:00.630Z,991.21
2017-10-21T01:52:00.605Z,991.15
2017-10-21T01:53:00.597Z,991.14
2017-10-21T01:54:00.562Z,991.16
2017-10-21T01:55:00.545Z,991.11
2017-10-21T01:56:00.520Z,991.14
2017-10-21T01:57:00.516Z,991.14
2017-10-21T01:58:00.472Z,991.19
2017-10-21T01:59:00.448Z,991.20
2017-10-21T02:00:00.433Z,991.20
2017-10-21T02:01:00.439Z,991.19
2017-10-21T02:02:00.420Z,991.18
2017-10-21T02:03:00.372Z,991.15
2017-10-21T02:04:00.375Z,991.22
2017-10-21T02:05:00.335Z,991.15
2017-10-21T02:06:00.313Z,991.17
2017-10-21T02:07:00.278Z,991.23
2017-10-21T02:08:00.265Z,991.19
2017-10-21T02:09:00.246Z,991.19
2017-10-21T02:10:00.244Z,991.15
2017-10-21T02:11:00.204Z,991.14
2017-10-21T02:12:00.174Z,991.17
2017-10-21T02:13:00.165Z,991.18
2017-10-21T02:14:00.134Z,991.17
2017-10-21T02:15:00.117Z,991.13
2017-10-21T02:16:00.086Z,991.13
2017-10-21T02:17:00.075Z,991.12
2017-10-21T02:18:00.060Z,991.15
2017-10-21T02:19:00.035Z,991.14
2017-10-21T02:20:00.122Z,991.18
2017-10-21T02:20:59.972Z,991.19
2017-10-21T02:21:59.970Z,991.20
2017-10-21T02:22:59.938Z,991.23
2017-10-21T02:23:59.921Z,991.21
2017-10-21T02:24:59.892Z,991.15
2017-10-21T02:25:59.880Z,991.12
2017-10-21T02:26:59.854Z,991.09
2017-10-21T02:27:59.833Z,991.05
2017-10-21T02:28:59.804Z,991.05
2017-10-21T02:29:59.799Z,991.04
2017-10-21T02:30:59.774Z,990.98
2017-10-21T02:31:59.745Z,990.93
2017-10-21T02:32:59.731Z,990.92
2017-10-21T02:33:59.706Z,990.91
2017-10-21T02:34:59.687Z,990.90
2017-10-21T02:35:59.669Z,990.89
2017-10-21T02:36:59.650Z,990.90
2017-10-21T02:37:59.612Z,990.85
2017-10-21T02:38:59.609Z,990.83
2017-10-21T02:39:59.594Z,990.86
2017-10-21T02:40:59.571Z,990.86
2017-10-21T02:41:59.538Z,990.84
2017-10-21T02:42:59.508Z,990.80
2017-10-21T02:43:59.519Z,990.78
2017-10-21T02:44:59.468Z,990.78
2017-10-21T02:45:59.449Z,990.79
2017-10-21T02:46:59.435Z,990.73
2017-10-21T02:47:59.412Z,990.72
2017-10-21T02:48:59.383Z,990.70
2017-10-21T02:49:59.376Z,990.69
2017-10-21T02:50:59.343Z,990.67
2017-10-21T02:51:59.337Z,990.71
2017-10-21T02:52:59.308Z,990.67
2017-10-21T02:53:59.280Z,990.67
2017-10-21T02:54:59.246Z,990.67
2017-10-21T02:55:59.236Z,990.63
2017-10-21T02:56:59.212Z,990.65
2017-10-21T02:57:59.189Z,990.69
2017-10-21T02:58:59.187Z,990.68
2017-10-21T02:59:59.148Z,990.71
2017-10-21T03:00:59.122Z,990.69
2017-10-21T03:01:59.127Z,990.68
2017-10-21T03:02:59.084Z,990.69
2017-10-21T03:03:59.065Z,990.66
2017-10-21T03:04:59.063Z,990.72
2017-10-21T03:05:59.066Z,990.70
2017-10-21T03:06:58.995Z,990.69
2017-10-21T03:07:58.972Z,990.72
2017-10-21T03:08:58.979Z,990.69
2017-10-21T03:09:58.927Z,990.68
2017-10-21T03:10:58.907Z,990.66
2017-10-21T03:11:58.894Z,990.64
2017-10-21T03:12:58.891Z,990.62
2017-10-21T03:13:58.849Z,990.61
2017-10-21T03:14:58.830Z,990.61
2017-10-21T03:15:58.815Z,990.63
2017-10-21T03:16:58.783Z,990.57
2017-10-21T03:17:58.764Z,990.56
2017-10-21T03:18:58.734Z,990.55
2017-10-21T03:19:58.733Z,990.55
2017-10-21T03:20:58.706Z,990.52
2017-10-21T03:21:58.679Z,990.53
2017-10-21T03:22:58.658Z,990.49
2017-10-21T03:23:58.641Z,990.42
2017-10-21T03:24:58.621Z,990.47
2017-10-21T03:25:58.592Z,990.50
2017-10-21T03:26:58.583Z,990.52
2017-10-21T03:27:58.548Z,990.56
2017-10-21T03:28:59.707Z,990.57
2017-10-21T03:29:58.509Z,990.57
2017-10-21T03:30:58.513Z,990.58
2017-10-21T03:31:58.468Z,990.59
2017-10-21T03:32:58.440Z,990.58
2017-10-21T03:33:58.434Z,990.60
2017-10-21T03:34:58.390Z,990.62
2017-10-21T03:35:58.377Z,990.67
2017-10-21T03:36:58.352Z,990.66
2017-10-21T03:37:58.353Z,990.69
2017-10-21T03:38:58.311Z,990.67
2017-10-21T03:39:58.303Z,990.70
2017-10-21T03:40:58.268Z,990.69
2017-10-21T03:41:58.256Z,990.68
2017-10-21T03:42:58.237Z,990.64
2017-10-21T03:43:58.212Z,990.63
2017-10-21T03:44:58.188Z,990.69
2017-10-21T03:45:58.162Z,990.71
2017-10-21T03:46:58.146Z,990.68
2017-10-21T03:47:58.123Z,990.70
2017-10-21T03:48:58.118Z,990.69
2017-10-21T03:49:58.080Z,990.69
2017-10-21T03:50:58.064Z,990.72
2017-10-21T03:51:58.040Z,990.72
2017-10-21T03:52:58.036Z,990.72
2017-10-21T03:53:57.995Z,990.71
2017-10-21T03:54:57.982Z,990.76
2017-10-21T03:55:57.958Z,990.73
2017-10-21T03:56:57.944Z,990.70
2017-10-21T03:57:57.913Z,990.72
2017-10-21T03:58:57.879Z,990.76
2017-10-21T03:59:57.881Z,990.76
2017-10-21T04:00:57.852Z,990.72
2017-10-21T04:01:57.817Z,990.69
2017-10-21T04:02:57.805Z,990.69
2017-10-21T04:03:57.780Z,990.63
2017-10-21T04:04:57.749Z,990.60
2017-10-21T04:05:57.732Z,990.58
2017-10-21T04:06:57.736Z,990.55
2017-10-21T04:07:57.722Z,990.58
2017-10-21T04:08:57.678Z,990.62
2017-10-21T04:09:57.669Z,990.60
2017-10-21T04:10:57.652Z,990.59
2017-10-21T04:11:57.617Z,990.58
2017-10-21T04:12:57.587Z,990.58
2017-10-21T04:13:57.573Z,990.57
2017-10-21T04:14:57.539Z,990.60
2017-10-21T04:15:57.535Z,990.59
2017-10-21T04:16:57.495Z,990.59
2017-10-21T04:17:57.508Z,990.54
2017-10-21T04:18:57.478Z,990.51
2017-10-21T04:19:57.444Z,990.49
2017-10-21T04:20:57.421Z,990.53
2017-10-21T04:21:57.398Z,990.50
2017-10-21T04:22:57.389Z,990.55
2017-10-21T04:23:57.367Z,990.58
2017-10-21T04:24:57.361Z,990.51
2017-10-21T04:25:57.310Z,990.50
2017-10-21T04:26:57.299Z,990.52
2017-10-21T04:27:57.274Z,990.52
2017-10-21T04:28:57.254Z,990.47
2017-10-21T04:29:57.232Z,990.47
2017-10-21T04:30:57.213Z,990.46
2017-10-21T04:31:57.187Z,990.45
2017-10-21T04:32:57.170Z,990.46
2017-10-21T04:33:57.148Z,990.45
2017-10-21T04:34:57.115Z,990.48
2017-10-21T04:35:57.098Z,990.43
2017-10-21T04:36:57.068Z,990.42
2017-10-21T04:37:57.061Z,990.45
2017-10-21T04:38:57.040Z,990.44
2017-10-21T04:39:57.029Z,990.42
2017-10-21T04:40:56.988Z,990.41
2017-10-21T04:41:56.968Z,990.37
2017-10-21T04:42:56.958Z,990.36
2017-10-21T04:43:56.941Z,990.35
2017-10-21T04:44:56.911Z,990.35
2017-10-21T04:45:56.890Z,990.35
2017-10-21T04:46:56.869Z,990.36
2017-10-21T04:47:56.852Z,990.38
2017-10-21T04:48:56.825Z,990.37
2017-10-21T04:49:56.819Z,990.40
2017-10-21T04:50:56.777Z,990.38
2017-10-21T04:51:56.756Z,990.37
2017-10-21T04:52:56.739Z,990.37
2017-10-21T04:53:56.718Z,990.35
2017-10-21T04:54:56.703Z,990.39
2017-10-21T04:55:56.676Z,990.37
2017-10-21T04:56:56.655Z,990.41
2017-10-21T04:57:56.633Z,990.42
2017-10-21T04:58:56.610Z,990.40
2017-10-21T04:59:56.601Z,990.40
2017-10-21T05:00:56.566Z,990.37
2017-10-21T05:01:56.563Z,990.37
2017-10-21T05:02:56.527Z,990.36
2017-10-21T05:03:56.511Z,990.34
2017-10-21T05:04:56.485Z,990.36
2017-10-21T05:05:56.467Z,990.39
2017-10-21T05:06:56.444Z,990.36
2017-10-21T05:07:56.419Z,990.34
2017-10-21T05:08:57.191Z,990.33
2017-10-21T05:09:56.381Z,990.34
2017-10-21T05:10:56.354Z,990.36
2017-10-21T05:11:56.361Z,990.30
2017-10-21T05:12:56.315Z,990.27
2017-10-21T05:13:56.289Z,990.26
2017-10-21T05:14:56.292Z,990.24
2017-10-21T05:15:56.249Z,990.25
2017-10-21T05:16:56.233Z,990.26
2017-10-21T05:17:56.214Z,990.24
2017-10-21T05:18:56.186Z,990.22
2017-10-21T05:19:56.182Z,990.21
2017-10-21T05:20:56.144Z,990.22
2017-10-21T05:21:56.121Z,990.20
2017-10-21T05:22:56.101Z,990.21
2017-10-21T05:23:56.086Z,990.30
2017-10-21T05:24:56.067Z,990.29
2017-10-21T05:25:56.061Z,990.25
2017-10-21T05:26:56.029Z,990.28
2017-10-21T05:27:56.004Z,990.28
2017-10-21T05:28:55.972Z,990.25
2017-10-21T05:29:55.963Z,990.23
2017-10-21T05:30:56.007Z,990.21
2017-10-21T05:31:55.909Z,990.22
2017-10-21T05:32:55.888Z,990.25
2017-10-21T05:33:55.883Z,990.25
2017-10-21T05:34:55.856Z,990.22
2017-10-21T05:35:55.827Z,990.16
2017-10-21T05:36:56.157Z,990.18
2017-10-21T05:37:55.802Z,990.15
2017-10-21T05:38:55.756Z,990.17
2017-10-21T05:39:55.855Z,990.15
2017-10-21T05:40:55.729Z,990.11
2017-10-21T05:41:55.709Z,990.14
2017-10-21T05:42:55.694Z,990.14
2017-10-21T05:43:55.669Z,990.16
2017-10-21T05:44:56.275Z,990.14
2017-10-21T05:45:55.632Z,990.13
2017-10-21T05:46:55.597Z,990.15
2017-10-21T05:47:55.604Z,990.12
2017-10-21T05:48:55.592Z,990.12
2017-10-21T05:49:55.562Z,990.15
2017-10-21T05:50:55.527Z,990.14
2017-10-21T05:51:55.492Z,990.14
2017-10-21T05:52:55.490Z,990.11
2017-10-21T05:53:55.472Z,990.14
2017-10-21T05:54:55.462Z,990.12
2017-10-21T05:55:55.434Z,990.18
2017-10-21T05:56:55.392Z,990.16
2017-10-21T05:57:55.374Z,990.18
2017-10-21T05:58:55.355Z,990.20
2017-10-21T05:59:55.337Z,990.22
2017-10-21T06:00:55.308Z,990.19
2017-10-21T06:01:55.294Z,990.22
2017-10-21T06:02:55.259Z,990.19
2017-10-21T06:03:55.376Z,990.21
2017-10-21T06:04:55.217Z,990.22
2017-10-21T06:05:55.221Z,990.23
2017-10-21T06:06:55.186Z,990.27
2017-10-21T06:07:55.166Z,990.28
2017-10-21T06:08:55.142Z,990.27
2017-10-21T06:09:55.120Z,990.29
2017-10-21T06:10:55.104Z,990.27
2017-10-21T06:11:55.087Z,990.25
2017-10-21T06:12:55.059Z,990.26
2017-10-21T06:13:55.048Z,990.32
2017-10-21T06:14:55.013Z,990.28
2017-10-21T06:15:54.997Z,990.29
2017-10-21T06:16:54.978Z,990.30
2017-10-21T06:17:54.953Z,990.33
2017-10-21T06:18:54.932Z,990.34
2017-10-21T06:19:54.905Z,990.37
2017-10-21T06:20:54.890Z,990.36
2017-10-21T06:21:54.873Z,990.35
2017-10-21T06:22:54.845Z,990.36
2017-10-21T06:23:54.834Z,990.41
2017-10-21T06:24:54.813Z,990.42
2017-10-21T06:25:54.782Z,990.39
2017-10-21T06:26:54.777Z,990.42
2017-10-21T06:27:54.746Z,990.49
2017-10-21T06:28:54.734Z,990.52
2017-10-21T06:29:54.717Z,990.52
2017-10-21T06:30:54.694Z,990.52
2017-10-21T06:31:54.685Z,990.55
2017-10-21T06:32:54.657Z,990.54
2017-10-21T06:33:54.631Z,990.55
2017-10-21T06:34:54.617Z,990.58
2017-10-21T06:35:54.574Z,990.64
2017-10-21T06:36:54.561Z,990.67
2017-10-21T06:37:54.558Z,990.67
2017-10-21T06:38:54.522Z,990.65
2017-10-21T06:39:54.532Z,990.63
2017-10-21T06:40:54.471Z,990.63
2017-10-21T06:41:54.466Z,990.66
2017-10-21T06:42:54.427Z,990.62
2017-10-21T06:43:54.411Z,990.62
2017-10-21T06:44:54.391Z,990.58
2017-10-21T06:45:54.372Z,990.62
2017-10-21T06:46:54.354Z,990.61
2017-10-21T06:47:54.328Z,990.61
2017-10-21T06:48:54.311Z,990.57
2017-10-21T06:49:54.296Z,990.61
2017-10-21T06:50:54.268Z,990.62
2017-10-21T06:51:54.258Z,990.62
2017-10-21T06:52:54.236Z,990.63
2017-10-21T06:53:54.196Z,990.65
2017-10-21T06:54:54.188Z,990.59
2017-10-21T06:55:54.170Z,990.64
2017-10-21T06:56:54.155Z,990.61
2017-10-21T06:57:54.122Z,990.59
2017-10-21T06:58:54.099Z,990.64
2017-10-21T06:59:54.084Z,990.58
2017-10-21T07:00:54.053Z,990.59
2017-10-21T07:01:54.035Z,990.58
2017-10-21T07:02:54.022Z,990.61
2017-10-21T07:03:54.020Z,990.61
2017-10-21T07:04:53.969Z,990.61
2017-10-21T07:05:53.955Z,990.63
2017-10-21T07:06:53.953Z,990.67
2017-10-21T07:07:53.921Z,990.70
2017-10-21T07:08:53.895Z,990.71
2017-10-21T07:09:53.906Z,990.66
2017-10-21T07:10:53.876Z,990.64
2017-10-21T07:11:53.888Z,990.64
2017-10-21T07:12:53.839Z,990.61
2017-10-21T07:13:53.827Z,990.60
2017-10-21T07:14:53.876Z,990.56
2017-10-21T07:15:53.752Z,990.54
2017-10-21T07:16:53.894Z,990.51
2017-10-21T07:17:53.725Z,990.49
2017-10-21T07:18:53.725Z,990.47
2017-10-21T07:19:53.791Z,990.45
2017-10-21T07:20:54.267Z,990.46
2017-10-21T07:21:53.645Z,990.48
2017-10-21T07:22:53.619Z,990.45
2017-10-21T07:23:53.584Z,990.43
2017-10-21T07:24:53.581Z,990.42
2017-10-21T07:25:53.581Z,990.40
2017-10-21T07:26:53.571Z,990.35
2017-10-21T07:27:53.784Z,990.36
2017-10-21T07:28:53.516Z,990.37
2017-10-21T07:29:53.461Z,990.43
2017-10-21T07:30:53.457Z,990.39
2017-10-21T07:31:53.437Z,990.39
2017-10-21T07:32:53.407Z,990.37
2017-10-21T07:33:53.427Z,990.38
2017-10-21T07:34:53.402Z,990.35
2017-10-21T07:35:53.344Z,990.38
2017-10-21T07:36:53.364Z,990.37
2017-10-21T07:37:53.326Z,990.33
2017-10-21T07:38:53.303Z,990.37
2017-10-21T07:39:53.292Z,990.34
2017-10-21T07:40:53.295Z,990.40
2017-10-21T07:41:53.242Z,990.34
2017-10-21T07:42:53.206Z,990.31
2017-10-21T07:43:53.393Z,990.30
2017-10-21T07:44:53.156Z,990.26
2017-10-21T07:45:53.315Z,990.26
2017-10-21T07:46:53.127Z,990.25
2017-10-21T07:47:53.146Z,990.23
2017-10-21T07:48:53.106Z,990.25
2017-10-21T07:49:53.082Z,990.25
2017-10-21T07:50:53.046Z,990.24
2017-10-21T07:51:53.069Z,990.24
2017-10-21T07:52:53.036Z,990.24
2017-10-21T07:53:53.012Z,990.22
2017-10-21T07:54:53.001Z,990.24
2017-10-21T07:55:52.943Z,990.17
2017-10-21T07:56:52.927Z,990.20
2017-10-21T07:57:52.924Z,990.17
2017-10-21T07:58:52.884Z,990.13
2017-10-21T07:59:52.886Z,990.10
2017-10-21T08:00:52.857Z,990.05
2017-10-21T08:01:52.821Z,990.02
2017-10-21T08:02:53.746Z,989.95
2017-10-21T08:03:52.787Z,989.98
2017-10-21T08:04:52.777Z,989.97
2017-10-21T08:05:52.744Z,990.13
2017-10-21T08:06:53.310Z,990.08
2017-10-21T08:07:52.774Z,990.00
2017-10-21T08:08:52.734Z,990.00
2017-10-21T08:09:52.676Z,989.95
2017-10-21T08:10:52.649Z,989.97
2017-10-21T08:11:52.681Z,989.99
2017-10-21T08:12:52.647Z,989.95
2017-10-21T08:13:52.648Z,989.97
2017-10-21T08:14:52.604Z,989.98
2017-10-21T08:15:52.561Z,989.94
2017-10-21T08:16:52.588Z,989.99
2017-10-21T08:17:52.578Z,990.00
2017-10-21T08:18:52.499Z,989.98
2017-10-21T08:19:52.481Z,990.00
2017-10-21T08:20:52.455Z,989.96
2017-10-21T08:21:52.443Z,990.08
2017-10-21T08:22:52.419Z,989.92
2017-10-21T08:23:52.414Z,989.98
2017-10-21T08:24:52.391Z,990.03
2017-10-21T08:25:52.365Z,990.10
2017-10-21T08:26:52.354Z,990.07
2017-10-21T08:27:52.331Z,990.15
2017-10-21T08:28:52.327Z,990.13
2017-10-21T08:29:52.283Z,990.20
2017-10-21T08:30:52.275Z,990.22
2017-10-21T08:31:52.259Z,990.25
2017-10-21T08:32:52.249Z,990.20
2017-10-21T08:33:52.219Z,990.24
2017-10-21T08:34:52.269Z,990.24
2017-10-21T08:35:52.192Z,990.27
2017-10-21T08:36:52.184Z,990.29
2017-10-21T08:37:52.143Z,990.35
2017-10-21T08:38:52.143Z,990.26
2017-10-21T08:39:52.159Z,990.22
2017-10-21T08:40:52.104Z,990.26
2017-10-21T08:41:52.071Z,990.27
2017-10-21T08:42:52.059Z,990.19
2017-10-21T08:43:52.030Z,990.20
2017-10-21T08:44:52.046Z,990.17
2017-10-21T08:45:51.993Z,990.20
2017-10-21T08:46:52.805Z,990.21
2017-10-21T08:47:51.962Z,990.18
2017-10-21T08:48:51.952Z,990.25
2017-10-21T08:49:51.931Z,990.23
2017-10-21T08:50:51.914Z,990.27
2017-10-21T08:51:51.888Z,990.26
2017-10-21T08:52:51.880Z,990.17
2017-10-21T08:53:51.861Z,990.22
2017-10-21T08:54:51.859Z,990.20
2017-10-21T08:55:51.817Z,990.20
2017-10-21T08:56:51.817Z,990.25
2017-10-21T08:57:51.784Z,990.24
2017-10-21T08:58:51.790Z,990.26
2017-10-21T08:59:51.742Z,990.21
2017-10-21T09:00:51.741Z,990.24
2017-10-21T09:01:51.744Z,990.23
2017-10-21T09:02:51.703Z,990.22
2017-10-21T09:03:51.680Z,990.25
2017-10-21T09:04:51.705Z,990.26
2017-10-21T09:05:51.636Z,990.25
2017-10-21T09:06:51.617Z,990.29
2017-10-21T09:07:51.597Z,990.27
2017-10-21T09:08:51.589Z,990.28
2017-10-21T09:09:51.561Z,990.29
2017-10-21T09:10:51.550Z,990.29
2017-10-21T09:11:51.547Z,990.35
2017-10-21T09:12:51.547Z,990.35
2017-10-21T09:13:51.501Z,990.35
2017-10-21T09:14:51.472Z,990.33
2017-10-21T09:15:51.497Z,990.34
2017-10-21T09:16:51.454Z,990.35
2017-10-21T09:17:51.427Z,990.36
2017-10-21T09:18:51.414Z,990.37
2017-10-21T09:19:51.393Z,990.37
2017-10-21T09:20:51.376Z,990.34
2017-10-21T09:21:51.348Z,990.33
2017-10-21T09:22:51.329Z,990.33
2017-10-21T09:23:51.309Z,990.33
2017-10-21T09:24:51.290Z,990.35
2017-10-21T09:25:51.291Z,990.35
2017-10-21T09:26:51.252Z,990.31
2017-10-21T09:27:51.236Z,990.38
2017-10-21T09:28:51.230Z,990.39
2017-10-21T09:29:51.235Z,990.35
2017-10-21T09:30:51.184Z,990.35
2017-10-21T09:31:51.165Z,990.34
2017-10-21T09:32:51.140Z,990.35
2017-10-21T09:33:51.167Z,990.37
2017-10-21T09:34:51.117Z,990.37
2017-10-21T09:35:51.085Z,990.37
2017-10-21T09:36:51.071Z,990.39
2017-10-21T09:37:51.203Z,990.34
2017-10-21T09:38:51.062Z,990.35
2017-10-21T09:39:51.017Z,990.39
2017-10-21T09:40:50.992Z,990.34
2017-10-21T09:41:50.981Z,990.37
2017-10-21T09:42:50.956Z,990.34
2017-10-21T09:43:50.953Z,990.30
2017-10-21T09:44:50.918Z,990.30
2017-10-21T09:45:50.968Z,990.26
2017-10-21T09:46:50.885Z,990.21
2017-10-21T09:47:50.868Z,990.25
2017-10-21T09:48:50.842Z,990.23
2017-10-21T09:49:50.838Z,990.19
2017-10-21T09:50:50.814Z,990.21
2017-10-21T09:51:50.785Z,990.22
2017-10-21T09:52:50.764Z,990.12
2017-10-21T09:53:50.760Z,990.12
2017-10-21T09:54:50.739Z,990.19
2017-10-21T09:55:51.466Z,990.16
2017-10-21T09:56:50.697Z,990.17
2017-10-21T09:57:50.668Z,990.18
2017-10-21T09:58:50.670Z,990.29
2017-10-21T09:59:50.750Z,990.25
2017-10-21T10:00:50.617Z,990.27
2017-10-21T10:01:50.617Z,990.27
2017-10-21T10:02:50.577Z,990.19
2017-10-21T10:03:50.577Z,990.10
2017-10-21T10:04:50.541Z,990.03
2017-10-21T10:05:50.589Z,990.00
2017-10-21T10:06:50.604Z,990.02
2017-10-21T10:07:50.505Z,990.01
2017-10-21T10:08:50.493Z,990.00
2017-10-21T10:09:50.480Z,990.05
2017-10-21T10:10:50.451Z,990.01
2017-10-21T10:11:50.428Z,990.09
2017-10-21T10:12:50.440Z,990.08
2017-10-21T10:13:50.396Z,990.21
2017-10-21T10:14:50.397Z,990.14
2017-10-21T10:15:50.375Z,990.07
2017-10-21T10:16:50.365Z,990.05
2017-10-21T10:17:50.348Z,990.09
2017-10-21T10:18:50.377Z,989.97
2017-10-21T10:19:50.311Z,989.98
2017-10-21T10:20:50.459Z,989.97
2017-10-21T10:21:50.275Z,989.96
2017-10-21T10:22:50.272Z,989.95
2017-10-21T10:23:50.303Z,989.85
2017-10-21T10:24:50.224Z,989.87
2017-10-21T10:25:50.203Z,989.88
2017-10-21T10:26:50.245Z,989.92
2017-10-21T10:27:50.186Z,989.83
2017-10-21T10:28:50.287Z,989.82
2017-10-21T10:29:50.155Z,989.81
2017-10-21T10:30:50.131Z,989.72
2017-10-21T10:31:50.115Z,989.86
2017-10-21T10:32:50.336Z,989.79
2017-10-21T10:33:50.094Z,989.74
2017-10-21T10:34:50.068Z,989.73
2017-10-21T10:35:50.077Z,989.71
2017-10-21T10:36:50.050Z,989.65
2017-10-21T10:37:50.049Z,989.64
2017-10-21T10:38:50.010Z,989.61
2017-10-21T10:39:49.991Z,989.62
2017-10-21T10:40:49.967Z,989.59
2017-10-21T10:41:49.957Z,989.64
2017-10-21T10:42:49.953Z,989.66
2017-10-21T10:43:49.926Z,989.60
2017-10-21T10:44:49.897Z,989.59
2017-10-21T10:45:49.879Z,989.62
2017-10-21T10:46:49.874Z,989.60
2017-10-21T10:47:49.850Z,989.58
2017-10-21T10:48:49.994Z,989.58
2017-10-21T10:49:49.822Z,989.61
2017-10-21T10:50:49.816Z,989.60
2017-10-21T10:51:49.782Z,989.56
2017-10-21T10:52:49.771Z,989.54
2017-10-21T10:53:49.755Z,989.53
2017-10-21T10:54:49.736Z,989.52
2017-10-21T10:55:49.710Z,989.53
2017-10-21T10:56:49.712Z,989.46
2017-10-21T10:57:49.683Z,989.46
2017-10-21T10:58:49.671Z,989.49
2017-10-21T10:59:49.647Z,989.49
2017-10-21T11:00:49.644Z,989.45
2017-10-21T11:01:49.653Z,989.40
2017-10-21T11:02:49.617Z,989.41
2017-10-21T11:03:49.724Z,989.42
2017-10-21T11:04:49.579Z,989.41
2017-10-21T11:05:49.554Z,989.43
2017-10-21T11:06:49.565Z,989.39
2017-10-21T11:07:49.508Z,989.35
2017-10-21T11:08:49.500Z,989.37
2017-10-21T11:09:49.484Z,989.36
2017-10-21T11:10:49.713Z,989.37
2017-10-21T11:11:49.460Z,989.36
2017-10-21T11:12:49.435Z,989.31
2017-10-21T11:13:49.432Z,989.25
2017-10-21T11:14:49.401Z,989.26
2017-10-21T11:15:49.385Z,989.22
2017-10-21T11:16:49.387Z,989.21
2017-10-21T11:17:49.359Z,989.24
2017-10-21T11:18:49.462Z,989.25
2017-10-21T11:19:49.318Z,989.29
2017-10-21T11:20:49.352Z,989.31
2017-10-21T11:21:49.968Z,989.31
2017-10-21T11:22:49.325Z,989.32
2017-10-21T11:23:49.254Z,989.31
2017-10-21T11:24:49.222Z,989.30
2017-10-21T11:25:49.210Z,989.29
2017-10-21T11:27:49.440Z,989.25
2017-10-21T11:28:49.189Z,989.26
2017-10-21T11:29:49.165Z,989.27
2017-10-21T11:30:49.150Z,989.30
2017-10-21T11:31:49.124Z,989.37
2017-10-21T11:32:49.107Z,989.32
2017-10-21T11:34:10.086Z,989.31
2017-10-21T11:34:49.259Z,989.30
2017-10-21T11:35:49.065Z,989.25
2017-10-21T11:36:49.036Z,989.34
2017-10-21T11:37:49.018Z,989.34
2017-10-21T11:38:49.104Z,989.30
2017-10-21T11:40:09.984Z,989.31
2017-10-21T11:40:48.987Z,989.34
2017-10-21T11:41:49.136Z,989.27
2017-10-21T11:42:48.987Z,989.26
2017-10-21T11:43:48.920Z,989.28
2017-10-21T11:44:48.897Z,989.33
2017-10-21T11:46:10.026Z,989.26
2017-10-21T11:46:49.063Z,989.27
2017-10-21T11:47:49.429Z,989.27
2017-10-21T11:48:48.842Z,989.27
2017-10-21T11:49:48.969Z,989.31
2017-10-21T11:50:48.988Z,989.28
2017-10-21T11:52:09.788Z,989.25
2017-10-21T11:52:48.755Z,989.24
2017-10-21T11:53:48.754Z,989.20
2017-10-21T11:54:48.959Z,989.14
2017-10-21T11:55:48.709Z,989.09
2017-10-21T11:56:49.533Z,989.09
2017-10-21T11:58:09.664Z,989.07
2017-10-21T11:58:48.669Z,989.13
2017-10-21T11:59:48.634Z,989.09
2017-10-21T12:00:48.614Z,989.09
2017-10-21T12:01:48.589Z,989.11
2017-10-21T12:02:48.605Z,989.12
2017-10-21T12:04:09.574Z,989.15
2017-10-21T12:04:48.549Z,989.14
2017-10-21T12:05:48.536Z,989.14
2017-10-21T12:06:48.513Z,989.05
2017-10-21T12:07:48.488Z,989.00
2017-10-21T12:08:48.463Z,988.98
2017-10-21T12:10:09.475Z,988.97
2017-10-21T12:10:48.644Z,988.96
2017-10-21T12:11:48.408Z,988.98
2017-10-21T12:12:48.394Z,988.99
2017-10-21T12:13:48.368Z,989.05
2017-10-21T12:14:48.364Z,989.05
2017-10-21T12:16:09.344Z,989.05
2017-10-21T12:16:48.322Z,989.04
2017-10-21T12:17:48.322Z,989.05
2017-10-21T12:18:48.292Z,989.01
2017-10-21T12:19:48.283Z,989.04
2017-10-21T12:20:48.300Z,989.02
2017-10-21T12:22:09.233Z,988.93
2017-10-21T12:22:48.392Z,988.95
2017-10-21T12:23:48.214Z,989.00
2017-10-21T12:24:48.288Z,988.95
2017-10-21T12:25:48.156Z,988.94
2017-10-21T12:26:48.148Z,988.90
2017-10-21T12:28:09.290Z,988.90
2017-10-21T12:28:48.106Z,988.91